sensor_id;sensor_type;location;lat;lon;timestamp;P1;durP1;ratioP1;P2;durP2;ratioP2
25045;SDS011;13044;49.304;12.840;2023-09-07T00:02:06;10.27;;;5.75;;
25045;SDS011;13044;49.304;12.840;2023-09-07T00:04:33;6.00;;;4.90;;
25045;SDS011;13044;49.304;12.840;2023-09-07T00:07:00;8.75;;;4.20;;
25045;SDS011;13044;49.304;12.840;2023-09-07T00:09:27;7.03;;;4.80;;
25045;SDS011;13044;49.304;12.840;2023-09-07T00:11:54;7.05;;;4.30;;
25045;SDS011;13044;49.304;12.840;2023-09-07T00:14:20;5.63;;;5.00;;
25045;SDS011;13044;49.304;12.840;2023-09-07T00:16:47;5.50;;;4.80;;
25045;SDS011;13044;49.304;12.840;2023-09-07T00:19:14;5.05;;;4.50;;
25045;SDS011;13044;49.304;12.840;2023-09-07T00:21:41;5.82;;;4.60;;
25045;SDS011;13044;49.304;12.840;2023-09-07T00:24:08;5.78;;;4.35;;
25045;SDS011;13044;49.304;12.840;2023-09-07T00:26:36;5.68;;;4.38;;
25045;SDS011;13044;49.304;12.840;2023-09-07T00:29:03;5.15;;;4.65;;
25045;SDS011;13044;49.304;12.840;2023-09-07T00:31:30;7.05;;;4.43;;
25045;SDS011;13044;49.304;12.840;2023-09-07T00:33:57;5.22;;;4.35;;
25045;SDS011;13044;49.304;12.840;2023-09-07T00:36:24;4.72;;;4.18;;
25045;SDS011;13044;49.304;12.840;2023-09-07T00:38:51;6.43;;;4.60;;
25045;SDS011;13044;49.304;12.840;2023-09-07T00:41:17;5.10;;;4.60;;
25045;SDS011;13044;49.304;12.840;2023-09-07T00:43:44;8.32;;;5.30;;
25045;SDS011;13044;49.304;12.840;2023-09-07T00:46:11;5.75;;;4.35;;
25045;SDS011;13044;49.304;12.840;2023-09-07T00:48:38;5.75;;;5.05;;
25045;SDS011;13044;49.304;12.840;2023-09-07T00:51:05;6.00;;;4.65;;
25045;SDS011;13044;49.304;12.840;2023-09-07T00:53:33;6.57;;;5.22;;
25045;SDS011;13044;49.304;12.840;2023-09-07T00:56:00;5.55;;;4.63;;
25045;SDS011;13044;49.304;12.840;2023-09-07T00:58:28;6.88;;;5.18;;
25045;SDS011;13044;49.304;12.840;2023-09-07T01:00:56;7.05;;;4.68;;
25045;SDS011;13044;49.304;12.840;2023-09-07T01:03:23;7.60;;;4.28;;
25045;SDS011;13044;49.304;12.840;2023-09-07T01:05:52;5.97;;;4.60;;
25045;SDS011;13044;49.304;12.840;2023-09-07T01:08:31;5.35;;;4.82;;
25045;SDS011;13044;49.304;12.840;2023-09-07T01:11:12;4.75;;;4.30;;
25045;SDS011;13044;49.304;12.840;2023-09-07T01:13:43;5.38;;;4.50;;
25045;SDS011;13044;49.304;12.840;2023-09-07T01:16:10;5.47;;;4.85;;
25045;SDS011;13044;49.304;12.840;2023-09-07T01:18:38;5.40;;;4.90;;
25045;SDS011;13044;49.304;12.840;2023-09-07T01:21:06;7.55;;;5.07;;
25045;SDS011;13044;49.304;12.840;2023-09-07T01:23:37;5.82;;;4.82;;
25045;SDS011;13044;49.304;12.840;2023-09-07T01:26:08;6.35;;;4.60;;
25045;SDS011;13044;49.304;12.840;2023-09-07T01:28:36;8.23;;;5.60;;
25045;SDS011;13044;49.304;12.840;2023-09-07T01:31:06;5.10;;;4.60;;
25045;SDS011;13044;49.304;12.840;2023-09-07T01:33:33;7.32;;;4.85;;
25045;SDS011;13044;49.304;12.840;2023-09-07T01:36:00;5.85;;;4.82;;
25045;SDS011;13044;49.304;12.840;2023-09-07T01:38:27;5.50;;;4.55;;
25045;SDS011;13044;49.304;12.840;2023-09-07T01:40:55;5.43;;;4.93;;
25045;SDS011;13044;49.304;12.840;2023-09-07T01:43:22;7.65;;;4.38;;
25045;SDS011;13044;49.304;12.840;2023-09-07T01:45:49;10.85;;;4.88;;
25045;SDS011;13044;49.304;12.840;2023-09-07T01:48:15;5.30;;;4.40;;
25045;SDS011;13044;49.304;12.840;2023-09-07T01:50:42;5.70;;;4.53;;
25045;SDS011;13044;49.304;12.840;2023-09-07T01:53:09;5.68;;;5.07;;
25045;SDS011;13044;49.304;12.840;2023-09-07T01:55:36;5.85;;;5.25;;
25045;SDS011;13044;49.304;12.840;2023-09-07T01:58:03;5.57;;;5.07;;
25045;SDS011;13044;49.304;12.840;2023-09-07T02:00:30;6.18;;;4.97;;
25045;SDS011;13044;49.304;12.840;2023-09-07T02:02:59;5.95;;;4.80;;
25045;SDS011;13044;49.304;12.840;2023-09-07T02:05:26;5.40;;;4.88;;
25045;SDS011;13044;49.304;12.840;2023-09-07T02:07:53;6.72;;;5.03;;
25045;SDS011;13044;49.304;12.840;2023-09-07T02:10:20;6.05;;;5.18;;
25045;SDS011;13044;49.304;12.840;2023-09-07T02:12:47;8.07;;;5.38;;
25045;SDS011;13044;49.304;12.840;2023-09-07T02:15:14;4.63;;;4.22;;
25045;SDS011;13044;49.304;12.840;2023-09-07T02:17:41;5.55;;;4.63;;
25045;SDS011;13044;49.304;12.840;2023-09-07T02:20:11;5.05;;;4.55;;
25045;SDS011;13044;49.304;12.840;2023-09-07T02:22:38;5.65;;;5.05;;
25045;SDS011;13044;49.304;12.840;2023-09-07T02:25:06;6.45;;;4.70;;
25045;SDS011;13044;49.304;12.840;2023-09-07T02:27:35;17.15;;;4.93;;
25045;SDS011;13044;49.304;12.840;2023-09-07T02:30:03;5.22;;;4.72;;
25045;SDS011;13044;49.304;12.840;2023-09-07T02:32:33;6.35;;;4.80;;
25045;SDS011;13044;49.304;12.840;2023-09-07T02:35:00;6.43;;;4.80;;
25045;SDS011;13044;49.304;12.840;2023-09-07T02:37:27;9.15;;;4.97;;
25045;SDS011;13044;49.304;12.840;2023-09-07T02:39:54;6.55;;;4.82;;
25045;SDS011;13044;49.304;12.840;2023-09-07T02:42:21;7.20;;;4.80;;
25045;SDS011;13044;49.304;12.840;2023-09-07T02:44:48;8.23;;;4.85;;
25045;SDS011;13044;49.304;12.840;2023-09-07T02:47:15;5.22;;;4.55;;
25045;SDS011;13044;49.304;12.840;2023-09-07T02:49:42;7.43;;;5.03;;
25045;SDS011;13044;49.304;12.840;2023-09-07T02:52:09;5.00;;;4.50;;
25045;SDS011;13044;49.304;12.840;2023-09-07T02:54:36;4.82;;;4.43;;
25045;SDS011;13044;49.304;12.840;2023-09-07T02:57:03;5.85;;;4.68;;
25045;SDS011;13044;49.304;12.840;2023-09-07T02:59:30;7.15;;;4.57;;
25045;SDS011;13044;49.304;12.840;2023-09-07T03:01:57;5.20;;;4.70;;
25045;SDS011;13044;49.304;12.840;2023-09-07T03:04:24;6.68;;;4.93;;
25045;SDS011;13044;49.304;12.840;2023-09-07T03:06:51;7.35;;;4.95;;
25045;SDS011;13044;49.304;12.840;2023-09-07T03:09:18;7.28;;;5.57;;
25045;SDS011;13044;49.304;12.840;2023-09-07T03:11:44;6.22;;;5.25;;
25045;SDS011;13044;49.304;12.840;2023-09-07T03:14:11;6.20;;;5.60;;
25045;SDS011;13044;49.304;12.840;2023-09-07T03:16:38;6.65;;;5.28;;
25045;SDS011;13044;49.304;12.840;2023-09-07T03:19:05;5.70;;;4.90;;
25045;SDS011;13044;49.304;12.840;2023-09-07T03:21:33;8.98;;;5.47;;
25045;SDS011;13044;49.304;12.840;2023-09-07T03:24:00;5.47;;;4.97;;
25045;SDS011;13044;49.304;12.840;2023-09-07T03:26:27;7.75;;;5.80;;
25045;SDS011;13044;49.304;12.840;2023-09-07T03:28:53;7.28;;;5.93;;
25045;SDS011;13044;49.304;12.840;2023-09-07T03:31:20;5.85;;;5.25;;
25045;SDS011;13044;49.304;12.840;2023-09-07T03:33:47;6.38;;;5.45;;
25045;SDS011;13044;49.304;12.840;2023-09-07T03:36:15;6.18;;;5.47;;
25045;SDS011;13044;49.304;12.840;2023-09-07T03:38:42;9.77;;;5.00;;
25045;SDS011;13044;49.304;12.840;2023-09-07T03:41:10;5.80;;;5.20;;
25045;SDS011;13044;49.304;12.840;2023-09-07T03:43:36;9.38;;;5.55;;
25045;SDS011;13044;49.304;12.840;2023-09-07T03:46:03;6.57;;;4.95;;
25045;SDS011;13044;49.304;12.840;2023-09-07T03:48:30;6.03;;;4.90;;
25045;SDS011;13044;49.304;12.840;2023-09-07T03:50:58;5.25;;;4.75;;
25045;SDS011;13044;49.304;12.840;2023-09-07T03:53:25;7.00;;;5.40;;
25045;SDS011;13044;49.304;12.840;2023-09-07T03:55:52;6.35;;;5.53;;
25045;SDS011;13044;49.304;12.840;2023-09-07T03:58:18;6.47;;;5.70;;
25045;SDS011;13044;49.304;12.840;2023-09-07T04:00:45;5.90;;;4.90;;
25045;SDS011;13044;49.304;12.840;2023-09-07T04:03:14;7.68;;;5.47;;
25045;SDS011;13044;49.304;12.840;2023-09-07T04:05:41;8.65;;;4.75;;
25045;SDS011;13044;49.304;12.840;2023-09-07T04:08:08;8.00;;;5.18;;
25045;SDS011;13044;49.304;12.840;2023-09-07T04:10:38;6.85;;;5.95;;
25045;SDS011;13044;49.304;12.840;2023-09-07T04:13:05;6.22;;;5.57;;
25045;SDS011;13044;49.304;12.840;2023-09-07T04:15:45;6.78;;;5.45;;
25045;SDS011;13044;49.304;12.840;2023-09-07T04:18:12;8.40;;;5.95;;
25045;SDS011;13044;49.304;12.840;2023-09-07T04:20:41;7.63;;;5.15;;
25045;SDS011;13044;49.304;12.840;2023-09-07T04:23:09;6.55;;;5.55;;
25045;SDS011;13044;49.304;12.840;2023-09-07T04:25:36;9.23;;;5.95;;
25045;SDS011;13044;49.304;12.840;2023-09-07T04:28:05;9.40;;;5.63;;
25045;SDS011;13044;49.304;12.840;2023-09-07T04:30:33;8.68;;;5.38;;
25045;SDS011;13044;49.304;12.840;2023-09-07T04:33:09;5.68;;;4.75;;
25045;SDS011;13044;49.304;12.840;2023-09-07T04:35:36;6.97;;;5.72;;
25045;SDS011;13044;49.304;12.840;2023-09-07T04:38:03;6.60;;;5.35;;
25045;SDS011;13044;49.304;12.840;2023-09-07T04:40:30;6.72;;;5.70;;
25045;SDS011;13044;49.304;12.840;2023-09-07T04:42:57;7.10;;;6.15;;
25045;SDS011;13044;49.304;12.840;2023-09-07T04:45:24;6.60;;;5.57;;
25045;SDS011;13044;49.304;12.840;2023-09-07T04:47:51;9.52;;;5.80;;
25045;SDS011;13044;49.304;12.840;2023-09-07T04:50:17;6.57;;;5.88;;
25045;SDS011;13044;49.304;12.840;2023-09-07T04:52:45;9.48;;;5.45;;
25045;SDS011;13044;49.304;12.840;2023-09-07T04:55:11;6.68;;;5.72;;
25045;SDS011;13044;49.304;12.840;2023-09-07T04:57:39;6.95;;;5.70;;
25045;SDS011;13044;49.304;12.840;2023-09-07T05:00:06;6.72;;;5.57;;
25045;SDS011;13044;49.304;12.840;2023-09-07T05:02:35;7.20;;;5.75;;
25045;SDS011;13044;49.304;12.840;2023-09-07T05:05:09;6.10;;;5.28;;
25045;SDS011;13044;49.304;12.840;2023-09-07T05:07:36;6.63;;;5.72;;
25045;SDS011;13044;49.304;12.840;2023-09-07T05:10:03;7.88;;;6.05;;
25045;SDS011;13044;49.304;12.840;2023-09-07T05:12:30;10.60;;;6.15;;
25045;SDS011;13044;49.304;12.840;2023-09-07T05:14:57;10.13;;;5.70;;
25045;SDS011;13044;49.304;12.840;2023-09-07T05:17:26;10.77;;;5.95;;
25045;SDS011;13044;49.304;12.840;2023-09-07T05:19:52;7.13;;;6.20;;
25045;SDS011;13044;49.304;12.840;2023-09-07T05:22:20;10.30;;;6.35;;
25045;SDS011;13044;49.304;12.840;2023-09-07T05:24:48;7.95;;;5.60;;
25045;SDS011;13044;49.304;12.840;2023-09-07T05:27:16;10.43;;;5.68;;
25045;SDS011;13044;49.304;12.840;2023-09-07T05:29:43;11.05;;;5.68;;
25045;SDS011;13044;49.304;12.840;2023-09-07T05:32:10;5.30;;;4.80;;
25045;SDS011;13044;49.304;12.840;2023-09-07T05:34:37;6.85;;;6.13;;
25045;SDS011;13044;49.304;12.840;2023-09-07T05:37:04;6.93;;;5.75;;
25045;SDS011;13044;49.304;12.840;2023-09-07T05:39:31;9.30;;;5.60;;
25045;SDS011;13044;49.304;12.840;2023-09-07T05:41:57;9.38;;;5.60;;
25045;SDS011;13044;49.304;12.840;2023-09-07T05:44:24;14.43;;;6.28;;
25045;SDS011;13044;49.304;12.840;2023-09-07T05:46:51;7.45;;;5.80;;
25045;SDS011;13044;49.304;12.840;2023-09-07T05:49:19;11.45;;;5.57;;
25045;SDS011;13044;49.304;12.840;2023-09-07T05:51:46;9.15;;;5.80;;
25045;SDS011;13044;49.304;12.840;2023-09-07T05:54:13;12.57;;;5.93;;
25045;SDS011;13044;49.304;12.840;2023-09-07T05:56:40;14.90;;;5.93;;
25045;SDS011;13044;49.304;12.840;2023-09-07T05:59:07;12.80;;;6.47;;
25045;SDS011;13044;49.304;12.840;2023-09-07T06:01:34;6.35;;;5.70;;
25045;SDS011;13044;49.304;12.840;2023-09-07T06:04:01;11.23;;;6.38;;
25045;SDS011;13044;49.304;12.840;2023-09-07T06:06:28;7.80;;;5.65;;
25045;SDS011;13044;49.304;12.840;2023-09-07T06:08:55;8.85;;;6.07;;
25045;SDS011;13044;49.304;12.840;2023-09-07T06:11:23;7.72;;;5.18;;
25045;SDS011;13044;49.304;12.840;2023-09-07T06:13:50;7.95;;;6.00;;
25045;SDS011;13044;49.304;12.840;2023-09-07T06:16:17;7.30;;;6.05;;
25045;SDS011;13044;49.304;12.840;2023-09-07T06:18:44;7.88;;;5.40;;
25045;SDS011;13044;49.304;12.840;2023-09-07T06:21:11;9.00;;;5.90;;
25045;SDS011;13044;49.304;12.840;2023-09-07T06:23:38;8.23;;;5.97;;
25045;SDS011;13044;49.304;12.840;2023-09-07T06:26:05;10.15;;;5.70;;
25045;SDS011;13044;49.304;12.840;2023-09-07T06:28:32;8.43;;;5.32;;
25045;SDS011;13044;49.304;12.840;2023-09-07T06:31:00;11.00;;;6.25;;
25045;SDS011;13044;49.304;12.840;2023-09-07T06:33:27;8.90;;;5.90;;
25045;SDS011;13044;49.304;12.840;2023-09-07T06:35:54;10.13;;;5.35;;
25045;SDS011;13044;49.304;12.840;2023-09-07T06:38:23;7.35;;;5.68;;
25045;SDS011;13044;49.304;12.840;2023-09-07T06:40:50;9.00;;;5.10;;
25045;SDS011;13044;49.304;12.840;2023-09-07T06:43:17;8.75;;;5.68;;
25045;SDS011;13044;49.304;12.840;2023-09-07T06:45:44;8.20;;;5.78;;
25045;SDS011;13044;49.304;12.840;2023-09-07T06:48:10;10.68;;;6.03;;
25045;SDS011;13044;49.304;12.840;2023-09-07T06:50:38;9.98;;;6.35;;
25045;SDS011;13044;49.304;12.840;2023-09-07T06:53:05;6.95;;;5.68;;
25045;SDS011;13044;49.304;12.840;2023-09-07T06:55:32;9.88;;;5.32;;
25045;SDS011;13044;49.304;12.840;2023-09-07T06:58:00;6.50;;;5.40;;
25045;SDS011;13044;49.304;12.840;2023-09-07T07:00:27;5.78;;;5.18;;
25045;SDS011;13044;49.304;12.840;2023-09-07T07:02:55;6.72;;;4.85;;
25045;SDS011;13044;49.304;12.840;2023-09-07T07:05:24;8.40;;;5.05;;
25045;SDS011;13044;49.304;12.840;2023-09-07T07:07:54;5.28;;;4.78;;
25045;SDS011;13044;49.304;12.840;2023-09-07T07:10:22;5.15;;;4.10;;
25045;SDS011;13044;49.304;12.840;2023-09-07T07:12:49;9.32;;;4.40;;
25045;SDS011;13044;49.304;12.840;2023-09-07T07:15:17;7.40;;;4.85;;
25045;SDS011;13044;49.304;12.840;2023-09-07T07:17:44;9.23;;;5.00;;
25045;SDS011;13044;49.304;12.840;2023-09-07T07:20:11;5.88;;;4.38;;
25045;SDS011;13044;49.304;12.840;2023-09-07T07:22:38;5.90;;;4.35;;
25045;SDS011;13044;49.304;12.840;2023-09-07T07:25:05;5.47;;;4.32;;
25045;SDS011;13044;49.304;12.840;2023-09-07T07:27:33;5.70;;;4.18;;
25045;SDS011;13044;49.304;12.840;2023-09-07T07:30:00;5.05;;;4.45;;
25045;SDS011;13044;49.304;12.840;2023-09-07T07:32:27;5.93;;;4.68;;
25045;SDS011;13044;49.304;12.840;2023-09-07T07:34:54;5.93;;;4.57;;
25045;SDS011;13044;49.304;12.840;2023-09-07T07:37:22;4.30;;;3.90;;
25045;SDS011;13044;49.304;12.840;2023-09-07T07:39:52;5.10;;;4.60;;
25045;SDS011;13044;49.304;12.840;2023-09-07T07:42:19;5.18;;;4.10;;
25045;SDS011;13044;49.304;12.840;2023-09-07T07:44:47;4.40;;;4.00;;
25045;SDS011;13044;49.304;12.840;2023-09-07T07:47:14;7.72;;;4.72;;
25045;SDS011;13044;49.304;12.840;2023-09-07T07:49:41;4.50;;;4.10;;
25045;SDS011;13044;49.304;12.840;2023-09-07T07:52:08;4.88;;;4.32;;
25045;SDS011;13044;49.304;12.840;2023-09-07T07:54:35;6.65;;;4.40;;
25045;SDS011;13044;49.304;12.840;2023-09-07T07:57:03;5.68;;;4.57;;
25045;SDS011;13044;49.304;12.840;2023-09-07T07:59:30;5.28;;;4.47;;
25045;SDS011;13044;49.304;12.840;2023-09-07T08:01:57;4.78;;;4.10;;
25045;SDS011;13044;49.304;12.840;2023-09-07T08:04:24;5.63;;;4.00;;
25045;SDS011;13044;49.304;12.840;2023-09-07T08:06:52;6.65;;;4.30;;
25045;SDS011;13044;49.304;12.840;2023-09-07T08:09:24;11.13;;;4.72;;
25045;SDS011;13044;49.304;12.840;2023-09-07T08:11:51;5.35;;;4.25;;
25045;SDS011;13044;49.304;12.840;2023-09-07T08:14:18;10.85;;;4.72;;
25045;SDS011;13044;49.304;12.840;2023-09-07T08:16:46;9.82;;;4.75;;
25045;SDS011;13044;49.304;12.840;2023-09-07T08:19:14;6.03;;;4.35;;
25045;SDS011;13044;49.304;12.840;2023-09-07T08:21:42;6.93;;;4.07;;
25045;SDS011;13044;49.304;12.840;2023-09-07T08:24:10;8.95;;;3.75;;
25045;SDS011;13044;49.304;12.840;2023-09-07T08:26:38;5.75;;;4.28;;
25045;SDS011;13044;49.304;12.840;2023-09-07T08:29:07;5.70;;;3.65;;
25045;SDS011;13044;49.304;12.840;2023-09-07T08:31:35;4.57;;;4.18;;
25045;SDS011;13044;49.304;12.840;2023-09-07T08:34:06;7.95;;;5.10;;
25045;SDS011;13044;49.304;12.840;2023-09-07T08:36:41;6.97;;;4.57;;
25045;SDS011;13044;49.304;12.840;2023-09-07T08:39:08;5.13;;;4.40;;
25045;SDS011;13044;49.304;12.840;2023-09-07T08:41:40;5.15;;;4.13;;
25045;SDS011;13044;49.304;12.840;2023-09-07T08:44:27;6.38;;;4.20;;
25045;SDS011;13044;49.304;12.840;2023-09-07T08:46:56;5.38;;;4.30;;
25045;SDS011;13044;49.304;12.840;2023-09-07T08:49:26;6.28;;;3.80;;
25045;SDS011;13044;49.304;12.840;2023-09-07T08:51:57;5.97;;;4.00;;
25045;SDS011;13044;49.304;12.840;2023-09-07T08:54:26;5.20;;;3.70;;
25045;SDS011;13044;49.304;12.840;2023-09-07T08:56:56;6.07;;;3.75;;
25045;SDS011;13044;49.304;12.840;2023-09-07T08:59:24;4.38;;;3.53;;
25045;SDS011;13044;49.304;12.840;2023-09-07T09:01:55;10.90;;;3.55;;
25045;SDS011;13044;49.304;12.840;2023-09-07T09:04:25;3.45;;;3.15;;
25045;SDS011;13044;49.304;12.840;2023-09-07T09:06:54;3.90;;;3.20;;
25045;SDS011;13044;49.304;12.840;2023-09-07T09:09:22;4.80;;;3.22;;
25045;SDS011;13044;49.304;12.840;2023-09-07T09:11:54;3.50;;;3.20;;
25045;SDS011;13044;49.304;12.840;2023-09-07T09:14:22;4.18;;;3.70;;
25045;SDS011;13044;49.304;12.840;2023-09-07T09:16:50;3.65;;;3.33;;
25045;SDS011;13044;49.304;12.840;2023-09-07T09:19:29;6.38;;;3.80;;
25045;SDS011;13044;49.304;12.840;2023-09-07T09:22:01;4.20;;;3.75;;
25045;SDS011;13044;49.304;12.840;2023-09-07T09:24:33;4.72;;;3.55;;
25045;SDS011;13044;49.304;12.840;2023-09-07T09:27:01;5.50;;;3.22;;
25045;SDS011;13044;49.304;12.840;2023-09-07T09:29:36;4.97;;;4.35;;
25045;SDS011;13044;49.304;12.840;2023-09-07T09:32:04;6.57;;;4.05;;
25045;SDS011;13044;49.304;12.840;2023-09-07T09:34:33;4.53;;;3.40;;
25045;SDS011;13044;49.304;12.840;2023-09-07T09:37:02;6.40;;;3.45;;
25045;SDS011;13044;49.304;12.840;2023-09-07T09:39:30;5.97;;;3.30;;
25045;SDS011;13044;49.304;12.840;2023-09-07T09:41:57;5.25;;;3.17;;
25045;SDS011;13044;49.304;12.840;2023-09-07T09:44:25;6.13;;;3.72;;
25045;SDS011;13044;49.304;12.840;2023-09-07T09:46:56;4.78;;;3.33;;
25045;SDS011;13044;49.304;12.840;2023-09-07T09:49:26;5.13;;;3.70;;
25045;SDS011;13044;49.304;12.840;2023-09-07T09:51:54;7.88;;;3.60;;
25045;SDS011;13044;49.304;12.840;2023-09-07T09:54:23;4.25;;;3.40;;
25045;SDS011;13044;49.304;12.840;2023-09-07T09:56:50;5.93;;;3.78;;
25045;SDS011;13044;49.304;12.840;2023-09-07T09:59:18;4.00;;;3.58;;
25045;SDS011;13044;49.304;12.840;2023-09-07T10:01:47;3.95;;;3.50;;
25045;SDS011;13044;49.304;12.840;2023-09-07T10:04:17;6.45;;;3.70;;
25045;SDS011;13044;49.304;12.840;2023-09-07T10:06:55;4.35;;;3.95;;
25045;SDS011;13044;49.304;12.840;2023-09-07T10:09:32;4.45;;;3.50;;
25045;SDS011;13044;49.304;12.840;2023-09-07T10:12:01;3.67;;;3.33;;
25045;SDS011;13044;49.304;12.840;2023-09-07T10:14:41;5.75;;;3.65;;
25045;SDS011;13044;49.304;12.840;2023-09-07T10:17:08;9.07;;;3.90;;
25045;SDS011;13044;49.304;12.840;2023-09-07T10:19:36;5.85;;;3.88;;
25045;SDS011;13044;49.304;12.840;2023-09-07T10:22:05;12.15;;;4.47;;
25045;SDS011;13044;49.304;12.840;2023-09-07T10:24:33;7.35;;;4.00;;
25045;SDS011;13044;49.304;12.840;2023-09-07T10:27:06;10.63;;;3.70;;
25045;SDS011;13044;49.304;12.840;2023-09-07T10:29:41;6.22;;;4.00;;
25045;SDS011;13044;49.304;12.840;2023-09-07T10:32:20;6.10;;;3.65;;
25045;SDS011;13044;49.304;12.840;2023-09-07T10:34:47;4.03;;;3.63;;
25045;SDS011;13044;49.304;12.840;2023-09-07T10:37:14;7.60;;;3.78;;
25045;SDS011;13044;49.304;12.840;2023-09-07T10:39:43;13.65;;;4.07;;
25045;SDS011;13044;49.304;12.840;2023-09-07T10:42:21;4.95;;;3.90;;
25045;SDS011;13044;49.304;12.840;2023-09-07T10:44:51;4.32;;;3.72;;
25045;SDS011;13044;49.304;12.840;2023-09-07T10:47:18;5.70;;;3.63;;
25045;SDS011;13044;49.304;12.840;2023-09-07T10:49:46;5.22;;;3.72;;
25045;SDS011;13044;49.304;12.840;2023-09-07T10:52:13;5.22;;;3.47;;
25045;SDS011;13044;49.304;12.840;2023-09-07T10:54:41;6.18;;;3.75;;
25045;SDS011;13044;49.304;12.840;2023-09-07T10:57:09;5.40;;;3.67;;
25045;SDS011;13044;49.304;12.840;2023-09-07T10:59:46;7.30;;;4.07;;
25045;SDS011;13044;49.304;12.840;2023-09-07T11:02:14;10.07;;;3.80;;
25045;SDS011;13044;49.304;12.840;2023-09-07T11:04:42;3.45;;;3.15;;
25045;SDS011;13044;49.304;12.840;2023-09-07T11:07:10;3.97;;;3.58;;
25045;SDS011;13044;49.304;12.840;2023-09-07T11:09:42;4.68;;;3.50;;
25045;SDS011;13044;49.304;12.840;2023-09-07T11:12:13;3.70;;;3.27;;
25045;SDS011;13044;49.304;12.840;2023-09-07T11:14:43;5.90;;;3.75;;
25045;SDS011;13044;49.304;12.840;2023-09-07T11:17:16;5.23;;;3.30;;
25045;SDS011;13044;49.304;12.840;2023-09-07T11:19:44;6.65;;;3.70;;
25045;SDS011;13044;49.304;12.840;2023-09-07T11:22:11;3.80;;;3.40;;
25045;SDS011;13044;49.304;12.840;2023-09-07T11:24:40;4.85;;;3.33;;
25045;SDS011;13044;49.304;12.840;2023-09-07T11:27:08;3.75;;;3.40;;
25045;SDS011;13044;49.304;12.840;2023-09-07T11:29:36;5.28;;;3.97;;
25045;SDS011;13044;49.304;12.840;2023-09-07T11:32:08;3.65;;;3.22;;
25045;SDS011;13044;49.304;12.840;2023-09-07T11:34:46;3.97;;;3.58;;
25045;SDS011;13044;49.304;12.840;2023-09-07T11:37:23;7.65;;;3.85;;
25045;SDS011;13044;49.304;12.840;2023-09-07T11:42:20;9.13;;;3.88;;
25045;SDS011;13044;49.304;12.840;2023-09-07T11:44:49;4.32;;;3.40;;
25045;SDS011;13044;49.304;12.840;2023-09-07T11:47:16;5.35;;;3.75;;
25045;SDS011;13044;49.304;12.840;2023-09-07T11:49:44;8.90;;;3.88;;
25045;SDS011;13044;49.304;12.840;2023-09-07T11:52:11;5.70;;;3.70;;
25045;SDS011;13044;49.304;12.840;2023-09-07T11:54:42;4.47;;;3.90;;
25045;SDS011;13044;49.304;12.840;2023-09-07T11:57:12;5.57;;;3.30;;
25045;SDS011;13044;49.304;12.840;2023-09-07T11:59:39;5.03;;;3.17;;
25045;SDS011;13044;49.304;12.840;2023-09-07T12:02:23;9.73;;;4.07;;
25045;SDS011;13044;49.304;12.840;2023-09-07T12:04:51;5.70;;;3.85;;
25045;SDS011;13044;49.304;12.840;2023-09-07T12:07:21;7.55;;;3.33;;
25045;SDS011;13044;49.304;12.840;2023-09-07T12:09:48;4.15;;;3.55;;
25045;SDS011;13044;49.304;12.840;2023-09-07T12:12:17;4.80;;;4.00;;
25045;SDS011;13044;49.304;12.840;2023-09-07T12:14:45;11.15;;;3.40;;
25045;SDS011;13044;49.304;12.840;2023-09-07T12:17:12;3.90;;;3.17;;
25045;SDS011;13044;49.304;12.840;2023-09-07T12:19:40;7.15;;;3.80;;
25045;SDS011;13044;49.304;12.840;2023-09-07T12:22:08;6.28;;;3.78;;
25045;SDS011;13044;49.304;12.840;2023-09-07T12:24:37;9.00;;;3.97;;
25045;SDS011;13044;49.304;12.840;2023-09-07T12:27:04;5.35;;;3.65;;
25045;SDS011;13044;49.304;12.840;2023-09-07T12:29:32;5.13;;;3.50;;
25045;SDS011;13044;49.304;12.840;2023-09-07T12:31:59;9.82;;;4.28;;
25045;SDS011;13044;49.304;12.840;2023-09-07T12:34:27;4.30;;;3.90;;
25045;SDS011;13044;49.304;12.840;2023-09-07T12:36:57;5.03;;;3.50;;
25045;SDS011;13044;49.304;12.840;2023-09-07T12:39:25;6.43;;;3.40;;
25045;SDS011;13044;49.304;12.840;2023-09-07T12:41:53;5.43;;;3.60;;
25045;SDS011;13044;49.304;12.840;2023-09-07T12:44:21;4.88;;;3.83;;
25045;SDS011;13044;49.304;12.840;2023-09-07T12:46:50;4.90;;;3.95;;
25045;SDS011;13044;49.304;12.840;2023-09-07T12:49:17;6.43;;;3.53;;
25045;SDS011;13044;49.304;12.840;2023-09-07T12:51:45;10.85;;;3.97;;
25045;SDS011;13044;49.304;12.840;2023-09-07T12:54:13;7.97;;;3.78;;
25045;SDS011;13044;49.304;12.840;2023-09-07T12:56:41;3.92;;;3.50;;
25045;SDS011;13044;49.304;12.840;2023-09-07T12:59:09;6.15;;;3.15;;
25045;SDS011;13044;49.304;12.840;2023-09-07T13:01:37;3.90;;;3.22;;
25045;SDS011;13044;49.304;12.840;2023-09-07T13:04:04;5.60;;;3.30;;
25045;SDS011;13044;49.304;12.840;2023-09-07T13:06:32;3.90;;;3.42;;
25045;SDS011;13044;49.304;12.840;2023-09-07T13:09:02;3.90;;;3.53;;
25045;SDS011;13044;49.304;12.840;2023-09-07T13:11:32;9.23;;;3.10;;
25045;SDS011;13044;49.304;12.840;2023-09-07T13:14:02;3.67;;;3.38;;
25045;SDS011;13044;49.304;12.840;2023-09-07T13:16:37;3.40;;;3.10;;
25045;SDS011;13044;49.304;12.840;2023-09-07T13:19:06;5.28;;;3.10;;
25045;SDS011;13044;49.304;12.840;2023-09-07T13:21:35;4.47;;;3.55;;
25045;SDS011;13044;49.304;12.840;2023-09-07T13:24:05;4.57;;;3.15;;
25045;SDS011;13044;49.304;12.840;2023-09-07T13:26:36;3.20;;;2.90;;
25045;SDS011;13044;49.304;12.840;2023-09-07T13:29:07;10.55;;;3.47;;
25045;SDS011;13044;49.304;12.840;2023-09-07T13:31:38;3.90;;;3.10;;
25045;SDS011;13044;49.304;12.840;2023-09-07T13:34:07;8.07;;;2.90;;
25045;SDS011;13044;49.304;12.840;2023-09-07T13:36:37;3.85;;;3.30;;
25045;SDS011;13044;49.304;12.840;2023-09-07T13:39:04;3.25;;;2.95;;
25045;SDS011;13044;49.304;12.840;2023-09-07T13:41:33;3.85;;;2.70;;
25045;SDS011;13044;49.304;12.840;2023-09-07T13:44:04;3.42;;;3.03;;
25045;SDS011;13044;49.304;12.840;2023-09-07T13:46:32;3.78;;;3.05;;
25045;SDS011;13044;49.304;12.840;2023-09-07T13:49:00;9.07;;;3.40;;
25045;SDS011;13044;49.304;12.840;2023-09-07T13:51:28;5.50;;;3.03;;
25045;SDS011;13044;49.304;12.840;2023-09-07T13:54:01;7.15;;;3.40;;
25045;SDS011;13044;49.304;12.840;2023-09-07T13:56:32;4.47;;;3.40;;
25045;SDS011;13044;49.304;12.840;2023-09-07T13:59:03;7.05;;;3.72;;
25045;SDS011;13044;49.304;12.840;2023-09-07T14:01:31;9.70;;;3.63;;
25045;SDS011;13044;49.304;12.840;2023-09-07T14:04:01;3.65;;;3.30;;
25045;SDS011;13044;49.304;12.840;2023-09-07T14:06:28;3.63;;;3.15;;
25045;SDS011;13044;49.304;12.840;2023-09-07T14:08:56;4.93;;;3.13;;
25045;SDS011;13044;49.304;12.840;2023-09-07T14:11:24;3.55;;;3.15;;
25045;SDS011;13044;49.304;12.840;2023-09-07T14:13:53;4.05;;;3.25;;
25045;SDS011;13044;49.304;12.840;2023-09-07T14:16:23;5.75;;;2.88;;
25045;SDS011;13044;49.304;12.840;2023-09-07T14:18:51;7.40;;;3.60;;
25045;SDS011;13044;49.304;12.840;2023-09-07T14:21:18;7.38;;;3.17;;
25045;SDS011;13044;49.304;12.840;2023-09-07T14:23:45;6.97;;;3.10;;
25045;SDS011;13044;49.304;12.840;2023-09-07T14:26:12;3.85;;;3.13;;
25045;SDS011;13044;49.304;12.840;2023-09-07T14:28:39;4.63;;;3.45;;
25045;SDS011;13044;49.304;12.840;2023-09-07T14:31:07;5.07;;;3.40;;
25045;SDS011;13044;49.304;12.840;2023-09-07T14:33:35;3.63;;;3.13;;
25045;SDS011;13044;49.304;12.840;2023-09-07T14:36:08;5.70;;;3.30;;
25045;SDS011;13044;49.304;12.840;2023-09-07T14:38:35;6.03;;;2.95;;
25045;SDS011;13044;49.304;12.840;2023-09-07T14:41:11;4.22;;;3.55;;
25045;SDS011;13044;49.304;12.840;2023-09-07T14:46:14;4.97;;;3.47;;